createdAt,value
2024-01-16T00:02:10.476Z,8.18
2024-01-16T00:04:41.858Z,8.32
2024-01-16T00:07:08.465Z,6.75
2024-01-16T00:09:35.631Z,5.55
2024-01-16T00:12:03.777Z,5.45
2024-01-16T00:14:30.478Z,6.38
2024-01-16T00:16:57.035Z,8.75
2024-01-16T00:19:23.554Z,7.80
2024-01-16T00:21:50.065Z,5.85
2024-01-16T00:24:16.591Z,9.32
2024-01-16T00:26:43.600Z,5.47
2024-01-16T00:29:10.941Z,4.78
2024-01-16T00:31:37.540Z,4.97
2024-01-16T00:34:04.582Z,5.85
2024-01-16T00:36:31.785Z,8.35
2024-01-16T00:38:58.205Z,4.28
2024-01-16T00:41:24.735Z,6.57
2024-01-16T00:43:51.234Z,5.95
2024-01-16T00:46:17.753Z,8.60
2024-01-16T00:48:44.347Z,6.43
2024-01-16T00:51:10.925Z,6.25
2024-01-16T00:53:44.885Z,6.63
2024-01-16T00:56:11.887Z,9.68
2024-01-16T00:58:39.008Z,10.07
2024-01-16T01:01:05.892Z,5.93
2024-01-16T01:03:32.416Z,6.63
2024-01-16T01:05:59.426Z,8.02
2024-01-16T01:08:26.102Z,6.50
2024-01-16T01:10:52.887Z,8.18
2024-01-16T01:13:19.390Z,8.50
2024-01-16T01:15:46.033Z,6.55
2024-01-16T01:18:12.610Z,9.20
2024-01-16T01:20:39.242Z,10.07
2024-01-16T01:23:05.757Z,4.35
2024-01-16T01:25:32.247Z,5.97
2024-01-16T01:27:58.699Z,6.13
2024-01-16T01:30:25.444Z,6.75
2024-01-16T01:32:52.203Z,7.45
2024-01-16T01:35:20.795Z,5.30
2024-01-16T01:37:47.410Z,6.10
2024-01-16T01:40:15.587Z,6.63
2024-01-16T01:42:43.143Z,8.90
2024-01-16T01:45:12.787Z,7.68
2024-01-16T01:47:41.218Z,5.18
2024-01-16T01:50:09.357Z,5.45
2024-01-16T01:52:40.172Z,5.65
2024-01-16T01:55:11.526Z,7.78
2024-01-16T01:57:38.598Z,8.13
2024-01-16T02:00:06.115Z,7.05
2024-01-16T02:02:33.319Z,8.63
2024-01-16T02:05:00.174Z,7.45
2024-01-16T02:07:26.837Z,8.75
2024-01-16T02:09:53.626Z,7.90
2024-01-16T02:12:21.844Z,7.32
2024-01-16T02:14:49.654Z,6.32
2024-01-16T02:17:16.216Z,6.13
2024-01-16T02:19:42.804Z,7.05
2024-01-16T02:22:14.797Z,7.63
2024-01-16T02:24:41.287Z,7.90
2024-01-16T02:27:08.505Z,6.72
2024-01-16T02:29:36.140Z,6.60
2024-01-16T02:32:04.532Z,7.90
2024-01-16T02:34:31.081Z,7.95
2024-01-16T02:36:57.599Z,10.27
2024-01-16T02:39:24.144Z,8.70
2024-01-16T02:41:50.657Z,9.60
2024-01-16T02:44:17.362Z,7.40
2024-01-16T02:46:43.842Z,8.55
2024-01-16T02:49:10.415Z,8.00
2024-01-16T02:51:36.855Z,8.15
2024-01-16T02:54:03.389Z,8.25
2024-01-16T02:56:29.881Z,10.15
2024-01-16T02:58:56.464Z,7.50
2024-01-16T03:01:22.940Z,6.07
2024-01-16T03:03:50.047Z,7.57
2024-01-16T03:06:24.646Z,7.70
2024-01-16T03:08:52.399Z,9.50
2024-01-16T03:11:18.984Z,8.13
2024-01-16T03:13:46.212Z,8.55
2024-01-16T03:16:12.686Z,9.00
2024-01-16T03:18:39.579Z,9.05
2024-01-16T03:21:09.555Z,9.48
2024-01-16T03:23:36.091Z,7.82
2024-01-16T03:26:02.646Z,10.82
2024-01-16T03:28:29.084Z,6.88
2024-01-16T03:30:55.895Z,9.18
2024-01-16T03:33:22.628Z,8.00
2024-01-16T03:35:49.362Z,8.38
2024-01-16T03:38:15.908Z,8.30
2024-01-16T03:40:42.410Z,7.25
2024-01-16T03:43:09.151Z,8.52
2024-01-16T03:45:35.659Z,8.65
2024-01-16T03:48:04.819Z,8.80
2024-01-16T03:50:31.516Z,8.30
2024-01-16T03:52:58.065Z,10.15
2024-01-16T03:55:24.535Z,6.45
2024-01-16T03:57:52.352Z,8.98
2024-01-16T04:00:18.946Z,10.55
2024-01-16T04:02:45.514Z,9.20
2024-01-16T04:05:12.153Z,8.63
2024-01-16T04:07:38.700Z,9.13
2024-01-16T04:10:07.290Z,10.38
2024-01-16T04:12:33.774Z,10.68
2024-01-16T04:15:00.500Z,8.80
2024-01-16T04:17:27.027Z,10.32
2024-01-16T04:19:53.487Z,9.25
2024-01-16T04:22:19.981Z,8.55
2024-01-16T04:24:46.491Z,11.85
2024-01-16T04:27:13.266Z,9.65
2024-01-16T04:29:39.833Z,8.27
2024-01-16T04:32:06.314Z,8.52
2024-01-16T04:34:33.210Z,9.00
2024-01-16T04:36:59.645Z,12.80
2024-01-16T04:39:26.129Z,11.30
2024-01-16T04:41:52.630Z,13.18
2024-01-16T04:44:19.160Z,8.13
2024-01-16T04:46:45.639Z,9.50
2024-01-16T04:49:12.233Z,10.65
2024-01-16T04:51:38.928Z,10.70
2024-01-16T04:54:05.398Z,10.15
2024-01-16T04:56:31.982Z,11.80
2024-01-16T04:58:58.700Z,8.88
2024-01-16T05:01:26.273Z,15.98
2024-01-16T05:03:52.791Z,11.80
2024-01-16T05:06:19.460Z,11.02
2024-01-16T05:08:46.029Z,10.30
2024-01-16T05:11:12.541Z,8.63
2024-01-16T05:13:39.053Z,8.75
2024-01-16T05:16:06.870Z,8.95
2024-01-16T05:18:36.341Z,11.00
2024-01-16T05:21:03.572Z,10.88
2024-01-16T05:23:30.297Z,10.00
2024-01-16T05:25:56.931Z,12.98
2024-01-16T05:28:23.885Z,11.70
2024-01-16T05:30:50.413Z,12.82
2024-01-16T05:33:17.297Z,10.10
2024-01-16T05:35:43.972Z,12.25
2024-01-16T05:38:13.561Z,9.63
2024-01-16T05:40:41.070Z,9.85
2024-01-16T05:43:07.651Z,8.65
2024-01-16T05:45:34.273Z,10.63
2024-01-16T05:48:01.055Z,12.27
2024-01-16T05:50:27.816Z,12.07
2024-01-16T05:52:54.603Z,14.55
2024-01-16T05:55:22.630Z,9.32
2024-01-16T05:57:49.225Z,9.50
2024-01-16T06:00:16.100Z,11.70
2024-01-16T06:02:42.637Z,10.60
2024-01-16T06:05:09.297Z,10.50
2024-01-16T06:07:35.858Z,10.40
2024-01-16T06:10:03.588Z,13.63
2024-01-16T06:12:31.088Z,12.75
2024-01-16T06:14:59.146Z,11.73
2024-01-16T06:17:25.790Z,17.48
2024-01-16T06:19:52.892Z,20.17
2024-01-16T06:22:19.420Z,11.45
2024-01-16T06:24:45.880Z,9.40
2024-01-16T06:27:15.253Z,9.65
2024-01-16T06:29:41.708Z,11.77
2024-01-16T06:32:08.523Z,10.95
2024-01-16T06:34:35.185Z,13.05
2024-01-16T06:37:01.748Z,12.13
2024-01-16T06:39:28.293Z,10.80
2024-01-16T06:41:54.887Z,13.68
2024-01-16T06:44:21.576Z,9.35
2024-01-16T06:46:48.103Z,11.02
2024-01-16T06:49:14.873Z,13.68
2024-01-16T06:51:41.391Z,9.80
2024-01-16T06:54:08.126Z,10.93
2024-01-16T06:56:34.892Z,13.95
2024-01-16T06:59:01.876Z,10.90
2024-01-16T07:01:28.403Z,10.05
2024-01-16T07:03:55.029Z,14.20
2024-01-16T07:06:21.792Z,10.38
2024-01-16T07:08:48.431Z,9.32
2024-01-16T07:11:15.158Z,11.00
2024-01-16T07:13:42.145Z,10.75
2024-01-16T07:16:12.396Z,13.85
2024-01-16T07:18:40.191Z,11.57
2024-01-16T07:21:19.614Z,9.82
2024-01-16T07:23:46.192Z,12.20
2024-01-16T07:26:13.185Z,11.43
2024-01-16T07:28:40.040Z,14.80
2024-01-16T07:31:07.137Z,11.52
2024-01-16T07:33:33.837Z,10.65
2024-01-16T07:36:00.626Z,12.82
2024-01-16T07:38:27.417Z,12.70
2024-01-16T07:40:53.968Z,11.75
2024-01-16T07:43:20.442Z,10.77
2024-01-16T07:45:46.972Z,10.60
2024-01-16T07:48:13.494Z,11.45
2024-01-16T07:50:40.050Z,13.23
2024-01-16T07:53:07.106Z,10.20
2024-01-16T07:55:33.687Z,12.13
2024-01-16T07:58:00.233Z,11.38
2024-01-16T08:00:28.546Z,12.15
2024-01-16T08:02:55.285Z,12.07
2024-01-16T08:05:26.138Z,11.52
2024-01-16T08:07:53.673Z,16.65
2024-01-16T08:10:20.407Z,10.88
2024-01-16T08:12:47.132Z,10.35
2024-01-16T08:15:13.586Z,10.52
2024-01-16T08:17:40.609Z,11.23
2024-01-16T08:20:11.040Z,9.27
2024-01-16T08:22:38.881Z,13.05
2024-01-16T08:25:09.261Z,10.85
2024-01-16T08:27:35.923Z,11.18
2024-01-16T08:30:02.399Z,12.20
2024-01-16T08:32:28.921Z,11.13
2024-01-16T08:34:55.499Z,11.48
2024-01-16T08:37:22.006Z,11.85
2024-01-16T08:39:48.708Z,9.63
2024-01-16T08:42:15.297Z,10.68
2024-01-16T08:44:41.914Z,16.85
2024-01-16T08:47:08.502Z,12.68
2024-01-16T08:49:35.046Z,12.13
2024-01-16T08:52:01.860Z,9.95
2024-01-16T08:54:28.278Z,11.68
2024-01-16T08:56:54.911Z,10.95
2024-01-16T08:59:21.473Z,9.38
2024-01-16T09:01:48.006Z,12.18
2024-01-16T09:04:14.591Z,9.90
2024-01-16T09:06:41.221Z,10.65
2024-01-16T09:09:07.808Z,9.80
2024-01-16T09:11:35.027Z,10.55
2024-01-16T09:14:04.398Z,10.52
2024-01-16T09:16:31.601Z,7.80
2024-01-16T09:18:58.311Z,9.48
2024-01-16T09:21:24.816Z,20.83
2024-01-16T09:23:51.575Z,11.40
2024-01-16T09:26:18.391Z,11.20
2024-01-16T09:28:45.474Z,9.35
2024-01-16T09:31:12.039Z,10.77
2024-01-16T09:33:38.709Z,9.00
2024-01-16T09:36:05.498Z,13.35
2024-01-16T09:38:32.414Z,12.40
2024-01-16T09:41:00.130Z,14.45
2024-01-16T09:43:28.708Z,10.90
2024-01-16T09:45:58.890Z,9.98
2024-01-16T09:48:28.922Z,13.95
2024-01-16T09:50:55.723Z,8.75
2024-01-16T09:53:22.331Z,12.10
2024-01-16T09:55:51.370Z,11.63
2024-01-16T09:58:24.840Z,11.65
2024-01-16T10:00:53.915Z,10.02
2024-01-16T10:03:21.838Z,8.25
2024-01-16T10:05:50.180Z,11.27
2024-01-16T10:08:16.757Z,14.93
2024-01-16T10:10:48.786Z,16.40
2024-01-16T10:13:18.551Z,13.65
2024-01-16T10:15:45.305Z,15.73
2024-01-16T10:18:24.851Z,14.63
2024-01-16T10:20:51.554Z,13.02
2024-01-16T10:23:28.496Z,10.75
2024-01-16T10:26:08.948Z,11.98
2024-01-16T10:28:36.438Z,9.38
2024-01-16T10:31:07.365Z,13.55
2024-01-16T10:33:37.091Z,11.43
2024-01-16T10:36:13.056Z,10.07
2024-01-16T10:38:45.252Z,13.70
2024-01-16T10:41:13.097Z,10.52
2024-01-16T10:43:40.327Z,12.85
2024-01-16T10:46:17.202Z,8.75
2024-01-16T10:48:45.812Z,12.57
2024-01-16T10:51:16.109Z,11.32
2024-01-16T10:53:47.783Z,10.32
2024-01-16T10:56:14.762Z,12.90
2024-01-16T10:58:43.047Z,9.90
2024-01-16T11:01:16.108Z,10.45
2024-01-16T11:03:50.996Z,14.25
2024-01-16T11:06:19.488Z,13.05
2024-01-16T11:08:50.670Z,11.32
2024-01-16T11:11:18.566Z,12.13
2024-01-16T11:13:47.577Z,10.00
2024-01-16T11:16:14.399Z,9.75
2024-01-16T11:18:41.226Z,9.05
2024-01-16T11:21:16.864Z,12.75
2024-01-16T11:23:47.390Z,12.18
2024-01-16T11:26:34.936Z,10.23
2024-01-16T11:29:22.115Z,11.90
2024-01-16T11:31:48.607Z,15.48
2024-01-16T11:34:15.332Z,11.35
2024-01-16T11:36:52.883Z,13.55
2024-01-16T11:39:21.348Z,11.77
2024-01-16T11:41:54.347Z,12.63
2024-01-16T11:44:48.564Z,11.40
2024-01-16T11:47:22.436Z,11.88
2024-01-16T11:49:50.091Z,12.80
2024-01-16T11:52:43.473Z,12.07
2024-01-16T11:55:29.368Z,14.32
2024-01-16T11:58:26.382Z,12.32
2024-01-16T12:00:53.531Z,9.93
2024-01-16T12:03:31.560Z,11.07
2024-01-16T12:06:03.353Z,9.50
2024-01-16T12:08:30.577Z,8.20
2024-01-16T12:10:57.652Z,8.48
2024-01-16T12:13:24.216Z,11.48
2024-01-16T12:16:00.965Z,11.38
2024-01-16T12:18:37.486Z,9.90
2024-01-16T12:21:15.745Z,13.68
2024-01-16T12:23:49.555Z,10.60
2024-01-16T12:26:23.581Z,7.53
2024-01-16T12:28:57.681Z,9.75
2024-01-16T12:31:27.547Z,10.45
2024-01-16T12:34:01.589Z,13.45
2024-01-16T12:36:30.634Z,12.35
2024-01-16T12:38:57.701Z,11.63
2024-01-16T12:41:32.508Z,10.52
2024-01-16T12:44:11.664Z,10.05
2024-01-16T12:46:42.410Z,11.57
2024-01-16T12:49:12.566Z,8.75
2024-01-16T12:51:39.396Z,12.88
2024-01-16T12:54:16.809Z,7.45
2024-01-16T12:56:43.616Z,9.00
2024-01-16T12:59:14.238Z,11.10
2024-01-16T13:01:47.044Z,9.13
2024-01-16T13:04:17.043Z,9.90
2024-01-16T13:06:47.681Z,11.75
2024-01-16T13:09:18.025Z,10.10
2024-01-16T13:12:02.082Z,9.05
2024-01-16T13:14:28.630Z,9.50
2024-01-16T13:16:58.373Z,13.77
2024-01-16T13:19:25.414Z,20.67
2024-01-16T13:21:52.409Z,12.88
2024-01-16T13:24:22.395Z,10.57
2024-01-16T13:26:49.075Z,9.25
2024-01-16T13:29:16.537Z,8.35
2024-01-16T13:31:43.265Z,13.20
2024-01-16T13:34:10.226Z,10.00
2024-01-16T13:39:13.949Z,8.23
2024-01-16T13:41:41.091Z,17.48
2024-01-16T13:44:07.595Z,6.80
2024-01-16T13:46:49.252Z,6.55
2024-01-16T13:49:21.102Z,10.75
2024-01-16T13:51:47.797Z,11.15
2024-01-16T13:54:14.618Z,22.73
2024-01-16T13:56:58.222Z,11.20
2024-01-16T13:59:27.590Z,10.52
2024-01-16T14:01:54.081Z,7.55
2024-01-16T14:04:21.824Z,9.13
2024-01-16T14:07:03.335Z,14.15
2024-01-16T14:09:36.585Z,11.20
2024-01-16T14:12:03.312Z,8.75
2024-01-16T14:14:29.945Z,10.95
2024-01-16T14:17:01.319Z,10.20
2024-01-16T14:19:30.998Z,9.65
2024-01-16T14:24:24.225Z,12.07
2024-01-16T14:26:50.771Z,13.15
2024-01-16T14:29:17.323Z,15.50
2024-01-16T14:31:44.321Z,9.43
2024-01-16T14:34:16.612Z,11.00
2024-01-16T14:36:43.347Z,14.20
2024-01-16T14:39:14.782Z,15.50
2024-01-16T14:41:42.503Z,14.30
2024-01-16T14:44:10.921Z,11.93
2024-01-16T14:46:37.712Z,24.65
2024-01-16T14:49:04.594Z,17.20
2024-01-16T14:51:31.282Z,20.65
2024-01-16T14:53:57.949Z,16.40
2024-01-16T14:56:25.439Z,8.68
2024-01-16T14:58:52.096Z,12.57
2024-01-16T15:01:19.277Z,19.98
2024-01-16T15:03:45.910Z,18.25
2024-01-16T15:06:14.100Z,11.02
2024-01-16T15:08:40.790Z,14.02
2024-01-16T15:11:08.589Z,18.17
2024-01-16T15:13:35.171Z,12.57
2024-01-16T15:16:01.778Z,11.00
2024-01-16T15:18:29.252Z,17.25
2024-01-16T15:20:56.601Z,15.02
2024-01-16T15:23:24.327Z,12.30
2024-01-16T15:25:50.972Z,13.05
2024-01-16T15:28:17.489Z,14.63
2024-01-16T15:30:46.097Z,30.23
2024-01-16T15:33:12.859Z,23.83
2024-01-16T15:35:39.502Z,21.67
2024-01-16T15:38:05.998Z,28.23
2024-01-16T15:40:32.606Z,34.60
2024-01-16T15:43:00.669Z,26.42
2024-01-16T15:45:28.002Z,12.05
2024-01-16T15:47:55.392Z,13.77
2024-01-16T15:50:22.352Z,19.75
2024-01-16T15:52:50.488Z,24.05
2024-01-16T15:55:17.558Z,23.80
2024-01-16T15:57:44.600Z,14.10
2024-01-16T16:00:11.584Z,15.55
2024-01-16T16:02:39.476Z,16.08
2024-01-16T16:05:06.847Z,13.77
2024-01-16T16:07:33.672Z,10.82
2024-01-16T16:10:00.179Z,15.98
2024-01-16T16:12:26.919Z,15.90
2024-01-16T16:14:53.549Z,18.83
2024-01-16T16:17:20.208Z,18.05
2024-01-16T16:19:47.745Z,29.58
2024-01-16T16:22:15.104Z,31.65
2024-01-16T16:24:42.596Z,15.70
2024-01-16T16:27:26.812Z,20.70
2024-01-16T16:29:57.105Z,12.45
2024-01-16T16:32:24.280Z,14.93
2024-01-16T16:34:50.944Z,14.13
2024-01-16T16:37:18.096Z,30.23
2024-01-16T16:39:44.740Z,11.05
2024-01-16T16:42:12.675Z,16.60
2024-01-16T16:44:39.617Z,18.60
2024-01-16T16:47:06.251Z,19.70
2024-01-16T16:49:32.838Z,17.52
2024-01-16T16:51:59.441Z,11.13
2024-01-16T16:54:27.076Z,11.95
2024-01-16T16:56:55.812Z,12.00
2024-01-16T16:59:23.141Z,12.27
2024-01-16T17:01:49.708Z,18.00
2024-01-16T17:04:16.255Z,16.92
2024-01-16T17:06:42.961Z,18.40
2024-01-16T17:09:12.985Z,15.30
2024-01-16T17:11:40.448Z,15.40
2024-01-16T17:14:07.059Z,19.42
2024-01-16T17:16:33.510Z,13.18
2024-01-16T17:19:00.174Z,12.73
2024-01-16T17:21:26.778Z,17.70
2024-01-16T17:23:54.116Z,15.63
2024-01-16T17:26:20.936Z,20.10
2024-01-16T17:28:47.498Z,17.85
2024-01-16T17:31:14.111Z,29.05
2024-01-16T17:33:40.790Z,23.85
2024-01-16T17:36:11.493Z,29.35
2024-01-16T17:38:38.437Z,21.85
2024-01-16T17:41:05.865Z,14.85
2024-01-16T17:43:32.610Z,13.95
2024-01-16T17:45:59.405Z,12.73
2024-01-16T17:48:26.872Z,13.00
2024-01-16T17:50:53.796Z,18.52
2024-01-16T17:53:20.522Z,18.35
2024-01-16T17:55:47.592Z,14.25
2024-01-16T17:58:16.753Z,14.35
2024-01-16T18:03:24.133Z,13.80
2024-01-16T18:06:00.410Z,16.95
2024-01-16T18:08:27.206Z,14.85
2024-01-16T18:10:55.631Z,16.17
2024-01-16T18:13:23.176Z,14.70
2024-01-16T18:15:49.754Z,15.15
2024-01-16T18:18:17.247Z,13.18
2024-01-16T18:20:44.007Z,15.52
2024-01-16T18:23:11.008Z,16.77
2024-01-16T18:25:37.696Z,13.93
2024-01-16T18:28:05.303Z,14.32
2024-01-16T18:30:34.343Z,12.65
2024-01-16T18:33:02.154Z,13.75
2024-01-16T18:35:29.635Z,19.42
2024-01-16T18:37:56.520Z,12.07
2024-01-16T18:40:24.542Z,19.88
2024-01-16T18:42:51.439Z,9.68
2024-01-16T18:45:19.188Z,10.35
2024-01-16T18:47:46.166Z,10.07
2024-01-16T18:50:13.830Z,18.15
2024-01-16T18:52:41.381Z,19.40
2024-01-16T18:55:12.153Z,23.55
2024-01-16T18:57:40.597Z,15.38
2024-01-16T19:00:14.907Z,14.80
2024-01-16T19:02:43.249Z,14.75
2024-01-16T19:05:14.410Z,16.65
2024-01-16T19:07:42.763Z,16.13
2024-01-16T19:10:17.478Z,16.35
2024-01-16T19:12:47.223Z,16.95
2024-01-16T19:15:21.281Z,16.42
2024-01-16T19:17:48.940Z,15.38
2024-01-16T19:20:15.915Z,19.60
2024-01-16T19:22:43.495Z,13.48
2024-01-16T19:25:12.235Z,13.88
2024-01-16T19:27:42.966Z,15.40
2024-01-16T19:30:14.887Z,17.75
2024-01-16T19:32:43.648Z,14.30
2024-01-16T19:35:11.463Z,14.20
2024-01-16T19:37:38.134Z,11.35
2024-01-16T19:40:08.595Z,16.33
2024-01-16T19:42:35.979Z,13.63
2024-01-16T19:45:02.734Z,14.65
2024-01-16T19:47:31.398Z,12.40
2024-01-16T19:49:58.378Z,15.10
2024-01-16T19:52:24.852Z,12.45
2024-01-16T19:54:51.545Z,18.13
2024-01-16T19:57:17.975Z,22.33
2024-01-16T19:59:44.530Z,33.60
2024-01-16T20:02:11.025Z,24.92
2024-01-16T20:04:38.081Z,23.98
2024-01-16T20:07:04.831Z,14.80
2024-01-16T20:09:31.270Z,14.93
2024-01-16T20:12:01.361Z,18.42
2024-01-16T20:14:28.381Z,16.65
2024-01-16T20:16:54.908Z,13.50
2024-01-16T20:19:21.844Z,18.73
2024-01-16T20:21:48.397Z,15.93
2024-01-16T20:24:14.962Z,18.77
2024-01-16T20:26:42.202Z,14.93
2024-01-16T20:29:11.461Z,16.30
2024-01-16T20:31:39.571Z,15.65
2024-01-16T20:34:06.109Z,15.80
2024-01-16T20:36:32.736Z,13.85
2024-01-16T20:38:59.246Z,12.02
2024-01-16T20:41:26.222Z,11.00
2024-01-16T20:43:52.817Z,14.95
2024-01-16T20:46:19.319Z,11.75
2024-01-16T20:48:47.353Z,12.18
2024-01-16T20:51:16.104Z,15.52
2024-01-16T20:53:42.824Z,14.00
2024-01-16T20:56:10.545Z,14.02
2024-01-16T20:58:38.854Z,12.30
2024-01-16T21:01:06.558Z,12.15
2024-01-16T21:03:33.168Z,13.73
2024-01-16T21:06:00.045Z,12.45
2024-01-16T21:08:27.581Z,10.20
2024-01-16T21:10:54.142Z,12.70
2024-01-16T21:13:24.123Z,14.18
2024-01-16T21:15:50.596Z,11.93
2024-01-16T21:18:17.618Z,12.65
2024-01-16T21:20:45.252Z,14.57
2024-01-16T21:23:12.198Z,14.00
2024-01-16T21:25:38.721Z,11.23
2024-01-16T21:28:05.458Z,11.45
2024-01-16T21:30:31.952Z,11.82
2024-01-16T21:32:58.846Z,12.48
2024-01-16T21:35:25.429Z,11.15
2024-01-16T21:37:51.968Z,15.55
2024-01-16T21:40:18.442Z,11.65
2024-01-16T21:42:44.953Z,13.43
2024-01-16T21:45:11.538Z,11.07
2024-01-16T21:47:38.224Z,15.63
2024-01-16T21:50:07.535Z,10.70
2024-01-16T21:52:34.730Z,12.77
2024-01-16T21:55:02.477Z,11.63
2024-01-16T21:57:31.540Z,11.18
2024-01-16T21:59:58.492Z,14.35
2024-01-16T22:02:25.070Z,19.13
2024-01-16T22:04:51.755Z,12.73
2024-01-16T22:07:18.701Z,10.95
2024-01-16T22:09:45.276Z,12.02
2024-01-16T22:12:11.991Z,11.50
2024-01-16T22:14:39.091Z,10.45
2024-01-16T22:17:05.881Z,13.48
2024-01-16T22:19:32.598Z,10.57
2024-01-16T22:21:59.121Z,10.85
2024-01-16T22:24:26.732Z,14.32
2024-01-16T22:26:53.222Z,10.88
2024-01-16T22:29:19.809Z,11.88
2024-01-16T22:31:46.964Z,9.30
2024-01-16T22:34:13.784Z,9.45
2024-01-16T22:36:43.779Z,10.30
2024-01-16T22:39:17.123Z,11.38
2024-01-16T22:41:48.339Z,10.73
2024-01-16T22:44:15.005Z,12.07
2024-01-16T22:46:41.463Z,8.77
2024-01-16T22:49:08.658Z,9.57
2024-01-16T22:51:37.649Z,9.63
2024-01-16T22:54:05.271Z,10.82
2024-01-16T22:56:32.875Z,11.20
2024-01-16T22:59:03.743Z,8.25
2024-01-16T23:01:31.153Z,14.35
2024-01-16T23:03:58.706Z,9.13
2024-01-16T23:06:29.099Z,10.05
2024-01-16T23:08:56.632Z,9.48
2024-01-16T23:11:24.218Z,11.05
2024-01-16T23:13:51.935Z,10.65
2024-01-16T23:16:18.864Z,8.10
2024-01-16T23:18:46.787Z,14.07
2024-01-16T23:21:14.620Z,10.43
2024-01-16T23:23:49.169Z,8.23
2024-01-16T23:26:15.714Z,9.57
2024-01-16T23:28:42.224Z,9.45
2024-01-16T23:31:09.942Z,11.48
2024-01-16T23:33:36.641Z,9.93
2024-01-16T23:36:03.391Z,9.57
2024-01-16T23:38:29.993Z,11.25
2024-01-16T23:40:57.576Z,10.13
2024-01-16T23:43:24.101Z,7.97
2024-01-16T23:45:51.378Z,11.23
2024-01-16T23:48:18.150Z,12.32
2024-01-16T23:50:44.916Z,10.77
2024-01-16T23:53:11.749Z,11.27
2024-01-16T23:55:39.498Z,11.30
2024-01-16T23:58:06.147Z,10.93
